sensor_id;sensor_type;location;lat;lon;timestamp;pressure;altitude;pressure_sealevel;temperature;humidity
50242;BME280;36126;43.222;27.874;2022-08-01T00:02:10;100753.97;;;20.08;100.00
50242;BME280;36126;43.222;27.874;2022-08-01T00:04:35;100752.81;;;20.09;100.00
50242;BME280;36126;43.222;27.874;2022-08-01T00:07:01;100753.97;;;20.08;100.00
50242;BME280;36126;43.222;27.874;2022-08-01T00:09:27;100758.31;;;19.95;100.00
50242;BME280;36126;43.222;27.874;2022-08-01T00:11:54;100755.75;;;19.99;100.00
50242;BME280;36126;43.222;27.874;2022-08-01T00:14:19;100747.78;;;20.06;100.00
50242;BME280;36126;43.222;27.874;2022-08-01T00:16:45;100739.09;;;20.02;100.00
50242;BME280;36126;43.222;27.874;2022-08-01T00:19:10;100740.47;;;20.05;100.00
50242;BME280;36126;43.222;27.874;2022-08-01T00:21:36;100734.91;;;20.00;100.00
50242;BME280;36126;43.222;27.874;2022-08-01T00:24:02;100733.47;;;20.02;100.00
50242;BME280;36126;43.222;27.874;2022-08-01T00:26:27;100741.41;;;19.95;100.00
50242;BME280;36126;43.222;27.874;2022-08-01T00:28:53;100726.84;;;19.88;100.00
50242;BME280;36126;43.222;27.874;2022-08-01T00:31:18;100732.22;;;19.84;100.00
50242;BME280;36126;43.222;27.874;2022-08-01T00:33:44;100727.50;;;19.75;100.00
50242;BME280;36126;43.222;27.874;2022-08-01T00:36:12;100724.97;;;19.73;100.00
50242;BME280;36126;43.222;27.874;2022-08-01T00:38:38;100719.34;;;19.73;100.00
50242;BME280;36126;43.222;27.874;2022-08-01T00:41:04;100713.72;;;19.73;100.00
50242;BME280;36126;43.222;27.874;2022-08-01T00:43:29;100721.97;;;19.64;100.00
50242;BME280;36126;43.222;27.874;2022-08-01T00:45:55;100730.47;;;19.59;100.00
50242;BME280;36126;43.222;27.874;2022-08-01T00:48:20;100719.25;;;19.54;100.00
50242;BME280;36126;43.222;27.874;2022-08-01T00:50:46;100724.03;;;19.53;100.00
50242;BME280;36126;43.222;27.874;2022-08-01T00:53:11;100729.59;;;19.64;100.00
50242;BME280;36126;43.222;27.874;2022-08-01T00:55:37;100731.22;;;19.70;100.00
50242;BME280;36126;43.222;27.874;2022-08-01T00:58:03;100733.41;;;19.78;100.00
50242;BME280;36126;43.222;27.874;2022-08-01T01:00:29;100727.22;;;19.76;100.00
50242;BME280;36126;43.222;27.874;2022-08-01T01:02:55;100719.31;;;19.78;100.00
50242;BME280;36126;43.222;27.874;2022-08-01T01:05:20;100704.31;;;19.53;100.00
50242;BME280;36126;43.222;27.874;2022-08-01T01:07:59;100721.19;;;19.59;100.00
50242;BME280;36126;43.222;27.874;2022-08-01T01:10:43;100725.25;;;19.47;100.00
50242;BME280;36126;43.222;27.874;2022-08-01T01:13:46;100721.22;;;19.53;100.00
50242;BME280;36126;43.222;27.874;2022-08-01T01:16:13;100718.16;;;19.50;100.00
50242;BME280;36126;43.222;27.874;2022-08-01T01:18:58;100716.56;;;19.38;100.00
50242;BME280;36126;43.222;27.874;2022-08-01T01:29:51;100716.34;;;19.35;100.00
50242;BME280;36126;43.222;27.874;2022-08-01T01:32:35;100719.34;;;19.44;100.00
50242;BME280;36126;43.222;27.874;2022-08-01T01:35:06;100713.53;;;19.35;100.00
50242;BME280;36126;43.222;27.874;2022-08-01T01:37:34;100721.66;;;19.36;100.00
50242;BME280;36126;43.222;27.874;2022-08-01T01:40:01;100712.94;;;19.38;100.00
50242;BME280;36126;43.222;27.874;2022-08-01T01:42:28;100715.88;;;19.23;100.00
50242;BME280;36126;43.222;27.874;2022-08-01T01:44:56;100692.00;;;19.15;100.00
50242;BME280;36126;43.222;27.874;2022-08-01T01:47:22;100712.59;;;19.10;100.00
50242;BME280;36126;43.222;27.874;2022-08-01T01:49:49;100696.41;;;18.86;100.00
50242;BME280;36126;43.222;27.874;2022-08-01T01:52:17;100702.31;;;18.90;100.00
50242;BME280;36126;43.222;27.874;2022-08-01T01:54:49;100690.72;;;18.52;100.00
50242;BME280;36126;43.222;27.874;2022-08-01T01:57:16;100698.56;;;18.60;100.00
50242;BME280;36126;43.222;27.874;2022-08-01T01:59:47;100698.81;;;18.59;100.00
50242;BME280;36126;43.222;27.874;2022-08-01T02:02:16;100707.50;;;18.67;100.00
50242;BME280;36126;43.222;27.874;2022-08-01T02:04:44;100699.97;;;18.58;100.00
50242;BME280;36126;43.222;27.874;2022-08-01T02:07:16;100689.28;;;18.55;100.00
50242;BME280;36126;43.222;27.874;2022-08-01T02:09:43;100695.16;;;18.58;100.00
50242;BME280;36126;43.222;27.874;2022-08-01T02:12:11;100689.84;;;18.51;100.00
50242;BME280;36126;43.222;27.874;2022-08-01T02:14:38;100691.81;;;18.56;100.00
50242;BME280;36126;43.222;27.874;2022-08-01T02:17:11;100682.59;;;18.45;100.00
50242;BME280;36126;43.222;27.874;2022-08-01T02:19:37;100668.78;;;18.49;100.00
50242;BME280;36126;43.222;27.874;2022-08-01T02:22:31;100657.50;;;18.54;100.00
50242;BME280;36126;43.222;27.874;2022-08-01T02:25:23;100657.22;;;18.50;100.00
50242;BME280;36126;43.222;27.874;2022-08-01T02:30:34;100659.56;;;18.38;100.00
50242;BME280;36126;43.222;27.874;2022-08-01T02:33:07;100657.00;;;18.42;100.00
50242;BME280;36126;43.222;27.874;2022-08-01T02:35:36;100652.00;;;18.28;100.00
50242;BME280;36126;43.222;27.874;2022-08-01T02:38:05;100656.88;;;18.12;100.00
50242;BME280;36126;43.222;27.874;2022-08-01T02:40:33;100661.16;;;17.99;100.00
50242;BME280;36126;43.222;27.874;2022-08-01T02:43:01;100654.16;;;17.92;100.00
50242;BME280;36126;43.222;27.874;2022-08-01T02:45:29;100648.94;;;18.25;100.00
50242;BME280;36126;43.222;27.874;2022-08-01T02:48:06;100649.19;;;18.33;100.00
50242;BME280;36126;43.222;27.874;2022-08-01T02:50:34;100662.13;;;18.34;100.00
50242;BME280;36126;43.222;27.874;2022-08-01T02:53:01;100642.13;;;18.36;100.00
50242;BME280;36126;43.222;27.874;2022-08-01T02:55:28;100646.66;;;18.32;100.00
50242;BME280;36126;43.222;27.874;2022-08-01T02:57:54;100644.44;;;18.29;100.00
50242;BME280;36126;43.222;27.874;2022-08-01T03:00:22;100643.22;;;18.40;100.00
50242;BME280;36126;43.222;27.874;2022-08-01T03:02:50;100643.22;;;18.40;100.00
50242;BME280;36126;43.222;27.874;2022-08-01T03:05:20;100649.88;;;18.55;100.00
50242;BME280;36126;43.222;27.874;2022-08-01T03:07:46;100636.16;;;18.48;100.00
50242;BME280;36126;43.222;27.874;2022-08-01T03:10:12;100633.00;;;18.55;100.00
50242;BME280;36126;43.222;27.874;2022-08-01T03:12:40;100638.63;;;18.55;100.00
50242;BME280;36126;43.222;27.874;2022-08-01T03:15:07;100633.00;;;18.55;100.00
50242;BME280;36126;43.222;27.874;2022-08-01T03:17:35;100628.56;;;18.48;100.00
50242;BME280;36126;43.222;27.874;2022-08-01T03:20:03;100644.53;;;18.58;100.00
50242;BME280;36126;43.222;27.874;2022-08-01T03:22:29;100636.50;;;18.41;100.00
50242;BME280;36126;43.222;27.874;2022-08-01T03:24:57;100649.06;;;18.49;100.00
50242;BME280;36126;43.222;27.874;2022-08-01T03:27:25;100644.91;;;18.46;100.00
50242;BME280;36126;43.222;27.874;2022-08-01T03:29:51;100644.66;;;18.38;100.00
50242;BME280;36126;43.222;27.874;2022-08-01T03:32:21;100647.50;;;18.32;100.00
50242;BME280;36126;43.222;27.874;2022-08-01T03:34:47;100647.75;;;18.36;100.00
50242;BME280;36126;43.222;27.874;2022-08-01T03:37:34;100649.16;;;18.39;100.00
50242;BME280;36126;43.222;27.874;2022-08-01T03:40:07;100642.31;;;18.55;100.00
50242;BME280;36126;43.222;27.874;2022-08-01T03:42:45;100636.66;;;18.60;100.00
50242;BME280;36126;43.222;27.874;2022-08-01T03:45:21;100638.84;;;18.68;100.00
50242;BME280;36126;43.222;27.874;2022-08-01T03:47:49;100637.03;;;18.83;100.00
50242;BME280;36126;43.222;27.874;2022-08-01T03:50:20;100642.94;;;18.86;100.00
50242;BME280;36126;43.222;27.874;2022-08-01T03:52:48;100634.41;;;18.97;100.00
50242;BME280;36126;43.222;27.874;2022-08-01T03:55:15;100633.50;;;19.07;100.00
50242;BME280;36126;43.222;27.874;2022-08-01T03:57:42;100622.72;;;19.14;100.00
50242;BME280;36126;43.222;27.874;2022-08-01T04:00:09;100626.06;;;19.21;100.00
50242;BME280;36126;43.222;27.874;2022-08-01T04:02:36;100628.72;;;19.36;100.00
50242;BME280;36126;43.222;27.874;2022-08-01T04:05:03;100618.22;;;19.42;100.00
50242;BME280;36126;43.222;27.874;2022-08-01T04:07:33;100622.63;;;19.53;100.00
50242;BME280;36126;43.222;27.874;2022-08-01T04:10:05;100620.53;;;19.64;100.00
50242;BME280;36126;43.222;27.874;2022-08-01T04:12:30;100626.28;;;19.78;100.00
50242;BME280;36126;43.222;27.874;2022-08-01T04:14:56;100617.81;;;19.83;100.00
50242;BME280;36126;43.222;27.874;2022-08-01T04:17:21;100621.88;;;19.96;100.00
50242;BME280;36126;43.222;27.874;2022-08-01T04:19:47;100618.38;;;20.04;100.00
50242;BME280;36126;43.222;27.874;2022-08-01T04:22:14;100606.88;;;20.20;100.00
50242;BME280;36126;43.222;27.874;2022-08-01T04:24:42;100622.91;;;20.25;100.00
50242;BME280;36126;43.222;27.874;2022-08-01T04:27:12;100622.22;;;20.33;100.00
50242;BME280;36126;43.222;27.874;2022-08-01T04:29:39;100623.59;;;20.35;100.00
50242;BME280;36126;43.222;27.874;2022-08-01T04:32:07;100632.53;;;20.43;100.00
50242;BME280;36126;43.222;27.874;2022-08-01T04:34:36;100611.47;;;20.54;100.00
50242;BME280;36126;43.222;27.874;2022-08-01T04:37:03;100621.09;;;20.72;100.00
50242;BME280;36126;43.222;27.874;2022-08-01T04:39:31;100588.03;;;20.92;100.00
50242;BME280;36126;43.222;27.874;2022-08-01T04:42:04;100611.19;;;22.61;100.00
50242;BME280;36126;43.222;27.874;2022-08-01T04:44:30;100612.94;;;24.19;100.00
50242;BME280;36126;43.222;27.874;2022-08-01T04:46:59;100609.94;;;25.20;100.00
50242;BME280;36126;43.222;27.874;2022-08-01T04:49:26;100609.31;;;26.09;100.00
50242;BME280;36126;43.222;27.874;2022-08-01T04:51:53;100591.84;;;26.83;100.00
50242;BME280;36126;43.222;27.874;2022-08-01T04:54:29;100610.50;;;27.47;100.00
50242;BME280;36126;43.222;27.874;2022-08-01T04:56:56;100609.78;;;27.51;100.00
50242;BME280;36126;43.222;27.874;2022-08-01T04:59:36;100603.56;;;28.07;100.00
50242;BME280;36126;43.222;27.874;2022-08-01T05:02:12;100614.34;;;28.38;100.00
50242;BME280;36126;43.222;27.874;2022-08-01T05:04:39;100629.00;;;27.87;100.00
50242;BME280;36126;43.222;27.874;2022-08-01T05:07:05;100625.50;;;28.56;100.00
50242;BME280;36126;43.222;27.874;2022-08-01T05:09:32;100618.66;;;28.85;100.00
50242;BME280;36126;43.222;27.874;2022-08-01T05:11:58;100612.44;;;28.42;100.00
50242;BME280;36126;43.222;27.874;2022-08-01T05:14:29;100605.22;;;28.32;100.00
50242;BME280;36126;43.222;27.874;2022-08-01T05:16:58;100612.88;;;29.26;100.00
50242;BME280;36126;43.222;27.874;2022-08-01T05:19:24;100602.97;;;29.23;100.00
50242;BME280;36126;43.222;27.874;2022-08-01T05:21:50;100595.47;;;28.62;100.00
50242;BME280;36126;43.222;27.874;2022-08-01T05:24:16;100589.22;;;28.44;100.00
50242;BME280;36126;43.222;27.874;2022-08-01T05:26:41;100594.78;;;29.22;100.00
50242;BME280;36126;43.222;27.874;2022-08-01T05:29:07;100602.75;;;29.28;100.00
50242;BME280;36126;43.222;27.874;2022-08-01T05:31:33;100580.97;;;29.40;100.00
50242;BME280;36126;43.222;27.874;2022-08-01T05:34:02;100607.75;;;30.11;100.00
50242;BME280;36126;43.222;27.874;2022-08-01T05:36:28;100613.53;;;31.45;98.83
50242;BME280;36126;43.222;27.874;2022-08-01T05:38:55;100605.59;;;31.38;91.94
50242;BME280;36126;43.222;27.874;2022-08-01T05:41:21;100606.38;;;30.57;97.70
50242;BME280;36126;43.222;27.874;2022-08-01T05:43:46;100617.00;;;31.34;95.31
50242;BME280;36126;43.222;27.874;2022-08-01T05:46:12;100611.91;;;31.47;93.63
50242;BME280;36126;43.222;27.874;2022-08-01T05:48:38;100611.69;;;31.13;92.92
50242;BME280;36126;43.222;27.874;2022-08-01T05:51:03;100610.91;;;31.16;94.54
50242;BME280;36126;43.222;27.874;2022-08-01T05:53:29;100614.03;;;30.17;98.18
50242;BME280;36126;43.222;27.874;2022-08-01T05:55:55;100609.25;;;30.96;94.47
50242;BME280;36126;43.222;27.874;2022-08-01T05:58:21;100621.13;;;31.80;91.58
50242;BME280;36126;43.222;27.874;2022-08-01T06:00:47;100620.91;;;31.46;88.77
50242;BME280;36126;43.222;27.874;2022-08-01T06:03:12;100607.91;;;30.34;96.35
50242;BME280;36126;43.222;27.874;2022-08-01T06:05:39;100605.78;;;31.26;94.48
50242;BME280;36126;43.222;27.874;2022-08-01T06:08:05;100592.88;;;31.39;91.42
50242;BME280;36126;43.222;27.874;2022-08-01T06:10:30;100603.50;;;31.15;90.81
50242;BME280;36126;43.222;27.874;2022-08-01T06:12:56;100593.25;;;30.75;90.62
50242;BME280;36126;43.222;27.874;2022-08-01T06:15:21;100604.69;;;31.77;86.60
50242;BME280;36126;43.222;27.874;2022-08-01T06:17:47;100602.53;;;32.20;87.56
50242;BME280;36126;43.222;27.874;2022-08-01T06:20:12;100592.03;;;31.15;89.84
50242;BME280;36126;43.222;27.874;2022-08-01T06:22:38;100599.13;;;31.64;86.53
50242;BME280;36126;43.222;27.874;2022-08-01T06:25:04;100576.00;;;30.36;90.50
50242;BME280;36126;43.222;27.874;2022-08-01T06:27:30;100594.75;;;30.49;92.86
50242;BME280;36126;43.222;27.874;2022-08-01T06:29:55;100571.22;;;30.24;90.32
50242;BME280;36126;43.222;27.874;2022-08-01T06:32:22;100592.28;;;30.67;87.92
50242;BME280;36126;43.222;27.874;2022-08-01T06:34:48;100574.97;;;30.09;89.27
50242;BME280;36126;43.222;27.874;2022-08-01T06:37:14;100574.44;;;29.87;92.67
50242;BME280;36126;43.222;27.874;2022-08-01T06:39:41;100575.25;;;29.72;91.22
50242;BME280;36126;43.222;27.874;2022-08-01T06:42:06;100574.63;;;29.62;89.89
50242;BME280;36126;43.222;27.874;2022-08-01T06:44:32;100579.41;;;29.74;91.51
50242;BME280;36126;43.222;27.874;2022-08-01T06:46:57;100575.16;;;29.84;90.10
50242;BME280;36126;43.222;27.874;2022-08-01T06:49:26;100567.63;;;28.06;97.46
50242;BME280;36126;43.222;27.874;2022-08-01T06:51:51;100571.56;;;27.18;100.00
50242;BME280;36126;43.222;27.874;2022-08-01T06:54:17;100567.03;;;26.62;100.00
50242;BME280;36126;43.222;27.874;2022-08-01T06:56:42;100545.34;;;26.37;100.00
50242;BME280;36126;43.222;27.874;2022-08-01T06:59:08;100545.06;;;26.29;100.00
50242;BME280;36126;43.222;27.874;2022-08-01T07:01:34;100559.75;;;26.53;100.00
50242;BME280;36126;43.222;27.874;2022-08-01T07:04:00;100557.34;;;26.21;100.00
50242;BME280;36126;43.222;27.874;2022-08-01T07:06:25;100555.88;;;26.15;100.00
50242;BME280;36126;43.222;27.874;2022-08-01T07:08:52;100542.97;;;26.18;100.00
50242;BME280;36126;43.222;27.874;2022-08-01T07:11:18;100537.47;;;26.12;100.00
50242;BME280;36126;43.222;27.874;2022-08-01T07:13:44;100551.84;;;26.37;100.00
50242;BME280;36126;43.222;27.874;2022-08-01T07:16:14;100560.03;;;26.39;100.00
50242;BME280;36126;43.222;27.874;2022-08-01T07:18:40;100558.09;;;26.52;100.00
50242;BME280;36126;43.222;27.874;2022-08-01T07:21:06;100566.47;;;26.69;100.00
50242;BME280;36126;43.222;27.874;2022-08-01T07:23:31;100552.19;;;26.57;100.00
50242;BME280;36126;43.222;27.874;2022-08-01T07:25:57;100556.09;;;26.73;100.00
50242;BME280;36126;43.222;27.874;2022-08-01T07:28:24;100534.75;;;26.79;100.00
50242;BME280;36126;43.222;27.874;2022-08-01T07:30:49;100536.47;;;27.05;100.00
50242;BME280;36126;43.222;27.874;2022-08-01T07:33:15;100540.03;;;27.02;100.00
50242;BME280;36126;43.222;27.874;2022-08-01T07:35:41;100551.31;;;26.98;100.00
50242;BME280;36126;43.222;27.874;2022-08-01T07:38:06;100552.84;;;26.96;100.00
50242;BME280;36126;43.222;27.874;2022-08-01T07:40:32;100548.41;;;27.20;100.00
50242;BME280;36126;43.222;27.874;2022-08-01T07:42:58;100561.91;;;27.56;99.49
50242;BME280;36126;43.222;27.874;2022-08-01T07:45:23;100560.41;;;27.25;98.83
50242;BME280;36126;43.222;27.874;2022-08-01T07:47:49;100551.63;;;27.30;99.08
50242;BME280;36126;43.222;27.874;2022-08-01T07:50:15;100543.06;;;27.18;99.99
50242;BME280;36126;43.222;27.874;2022-08-01T07:52:41;100545.63;;;27.44;96.25
50242;BME280;36126;43.222;27.874;2022-08-01T07:55:07;100550.25;;;27.61;94.64
50242;BME280;36126;43.222;27.874;2022-08-01T07:57:33;100544.78;;;27.56;98.67
50242;BME280;36126;43.222;27.874;2022-08-01T07:59:59;100551.34;;;27.81;95.04
50242;BME280;36126;43.222;27.874;2022-08-01T08:02:24;100555.00;;;27.70;97.66
50242;BME280;36126;43.222;27.874;2022-08-01T08:04:50;100567.75;;;27.60;95.22
50242;BME280;36126;43.222;27.874;2022-08-01T08:07:16;100553.69;;;27.67;95.31
50242;BME280;36126;43.222;27.874;2022-08-01T08:09:41;100564.03;;;27.72;93.15
50242;BME280;36126;43.222;27.874;2022-08-01T08:12:07;100567.16;;;27.79;96.08
50242;BME280;36126;43.222;27.874;2022-08-01T08:14:32;100563.94;;;27.80;93.51
50242;BME280;36126;43.222;27.874;2022-08-01T08:16:58;100558.59;;;27.91;94.38
50242;BME280;36126;43.222;27.874;2022-08-01T08:19:23;100572.50;;;27.93;94.86
50242;BME280;36126;43.222;27.874;2022-08-01T08:21:49;100565.94;;;27.80;92.27
50242;BME280;36126;43.222;27.874;2022-08-01T08:24:14;100573.56;;;27.88;96.42
50242;BME280;36126;43.222;27.874;2022-08-01T08:26:53;100562.25;;;27.92;95.90
50242;BME280;36126;43.222;27.874;2022-08-01T08:29:20;100561.88;;;28.30;90.74
50242;BME280;36126;43.222;27.874;2022-08-01T08:31:46;100560.53;;;28.40;90.15
50242;BME280;36126;43.222;27.874;2022-08-01T08:34:12;100566.34;;;28.56;89.33
50242;BME280;36126;43.222;27.874;2022-08-01T08:36:38;100562.00;;;28.34;88.64
50242;BME280;36126;43.222;27.874;2022-08-01T08:39:04;100566.34;;;28.56;90.47
50242;BME280;36126;43.222;27.874;2022-08-01T08:41:31;100566.59;;;28.51;89.88
50242;BME280;36126;43.222;27.874;2022-08-01T08:43:57;100563.44;;;28.28;89.75
50242;BME280;36126;43.222;27.874;2022-08-01T08:46:27;100566.50;;;28.35;90.91
50242;BME280;36126;43.222;27.874;2022-08-01T08:48:54;100565.31;;;28.36;88.42
50242;BME280;36126;43.222;27.874;2022-08-01T08:51:22;100561.31;;;28.53;87.07
50242;BME280;36126;43.222;27.874;2022-08-01T08:53:49;100562.16;;;28.66;90.17
50242;BME280;36126;43.222;27.874;2022-08-01T08:56:18;100551.75;;;28.74;87.94
50242;BME280;36126;43.222;27.874;2022-08-01T08:58:45;100566.25;;;29.09;87.05
50242;BME280;36126;43.222;27.874;2022-08-01T09:01:12;100561.69;;;29.37;84.06
50242;BME280;36126;43.222;27.874;2022-08-01T09:03:40;100561.34;;;29.10;86.33
50242;BME280;36126;43.222;27.874;2022-08-01T09:06:06;100540.88;;;29.08;84.61
50242;BME280;36126;43.222;27.874;2022-08-01T09:08:33;100560.16;;;29.11;85.36
50242;BME280;36126;43.222;27.874;2022-08-01T09:11:02;100513.16;;;28.96;83.28
50242;BME280;36126;43.222;27.874;2022-08-01T09:13:28;100557.22;;;29.23;84.56
50242;BME280;36126;43.222;27.874;2022-08-01T09:15:56;100551.03;;;28.77;87.23
50242;BME280;36126;43.222;27.874;2022-08-01T09:18:38;100554.59;;;28.45;88.21
50242;BME280;36126;43.222;27.874;2022-08-01T09:23:53;100540.50;;;28.93;84.47
50242;BME280;36126;43.222;27.874;2022-08-01T09:26:21;100533.56;;;28.94;80.59
50242;BME280;36126;43.222;27.874;2022-08-01T09:28:53;100545.59;;;29.16;82.53
50242;BME280;36126;43.222;27.874;2022-08-01T09:31:20;100544.84;;;29.03;83.61
50242;BME280;36126;43.222;27.874;2022-08-01T09:33:59;100544.66;;;29.12;84.67
50242;BME280;36126;43.222;27.874;2022-08-01T09:36:48;100542.84;;;29.67;82.59
50242;BME280;36126;43.222;27.874;2022-08-01T09:39:19;100541.09;;;29.63;81.01
50242;BME280;36126;43.222;27.874;2022-08-01T09:41:46;100535.81;;;29.81;81.17
50242;BME280;36126;43.222;27.874;2022-08-01T09:44:12;100536.47;;;29.74;79.31
50242;BME280;36126;43.222;27.874;2022-08-01T09:46:53;100537.44;;;29.62;79.94
50242;BME280;36126;43.222;27.874;2022-08-01T09:49:30;100512.00;;;29.13;80.51
50242;BME280;36126;43.222;27.874;2022-08-01T09:51:57;100529.34;;;29.20;81.46
50242;BME280;36126;43.222;27.874;2022-08-01T09:54:31;100515.16;;;29.24;81.14
50242;BME280;36126;43.222;27.874;2022-08-01T09:57:13;100520.06;;;29.55;81.20
50242;BME280;36126;43.222;27.874;2022-08-01T09:59:41;100526.25;;;29.57;78.63
50242;BME280;36126;43.222;27.874;2022-08-01T10:02:13;100533.94;;;30.05;75.91
50242;BME280;36126;43.222;27.874;2022-08-01T10:04:50;100541.56;;;29.97;73.29
50242;BME280;36126;43.222;27.874;2022-08-01T10:07:18;100538.50;;;29.90;75.77
50242;BME280;36126;43.222;27.874;2022-08-01T10:09:45;100532.94;;;30.32;74.03
50242;BME280;36126;43.222;27.874;2022-08-01T10:12:14;100527.72;;;30.54;75.07
50242;BME280;36126;43.222;27.874;2022-08-01T10:14:40;100546.50;;;30.35;74.39
50242;BME280;36126;43.222;27.874;2022-08-01T10:17:08;100537.19;;;30.39;71.94
50242;BME280;36126;43.222;27.874;2022-08-01T10:19:35;100539.28;;;30.42;70.57
50242;BME280;36126;43.222;27.874;2022-08-01T10:22:02;100530.41;;;30.86;69.71
50242;BME280;36126;43.222;27.874;2022-08-01T10:24:29;100537.03;;;31.33;70.69
50242;BME280;36126;43.222;27.874;2022-08-01T10:27:02;100536.09;;;31.71;69.94
50242;BME280;36126;43.222;27.874;2022-08-01T10:29:34;100533.66;;;30.84;70.97
50242;BME280;36126;43.222;27.874;2022-08-01T10:32:04;100521.72;;;30.63;72.76
50242;BME280;36126;43.222;27.874;2022-08-01T10:34:29;100524.91;;;30.77;72.53
50242;BME280;36126;43.222;27.874;2022-08-01T10:36:55;100528.50;;;30.94;75.20
50242;BME280;36126;43.222;27.874;2022-08-01T10:39:21;100525.41;;;31.02;72.58
50242;BME280;36126;43.222;27.874;2022-08-01T10:41:48;100528.56;;;30.97;73.52
50242;BME280;36126;43.222;27.874;2022-08-01T10:44:14;100532.50;;;31.09;72.03
50242;BME280;36126;43.222;27.874;2022-08-01T10:46:44;100521.72;;;30.43;75.89
50242;BME280;36126;43.222;27.874;2022-08-01T10:49:17;100522.56;;;30.44;75.12
50242;BME280;36126;43.222;27.874;2022-08-01T10:51:45;100538.88;;;30.79;72.87
50242;BME280;36126;43.222;27.874;2022-08-01T10:54:12;100531.09;;;30.60;72.88
50242;BME280;36126;43.222;27.874;2022-08-01T10:56:49;100531.31;;;30.70;74.15
50242;BME280;36126;43.222;27.874;2022-08-01T10:59:29;100542.00;;;31.13;74.90
50242;BME280;36126;43.222;27.874;2022-08-01T11:02:02;100529.06;;;30.80;73.49
50242;BME280;36126;43.222;27.874;2022-08-01T11:07:05;100511.16;;;30.86;72.73
50242;BME280;36126;43.222;27.874;2022-08-01T11:09:39;100524.16;;;30.80;75.10
50242;BME280;36126;43.222;27.874;2022-08-01T11:12:09;100522.69;;;30.90;72.36
50242;BME280;36126;43.222;27.874;2022-08-01T11:17:37;100511.56;;;30.46;73.25
50242;BME280;36126;43.222;27.874;2022-08-01T11:20:14;100522.56;;;30.44;74.20
50242;BME280;36126;43.222;27.874;2022-08-01T11:25:24;100492.81;;;30.32;73.92
50242;BME280;36126;43.222;27.874;2022-08-01T11:30:50;100507.19;;;30.72;72.85
50242;BME280;36126;43.222;27.874;2022-08-01T11:33:18;100512.38;;;31.05;72.76
50242;BME280;36126;43.222;27.874;2022-08-01T11:36:17;100500.84;;;31.75;70.24
50242;BME280;36126;43.222;27.874;2022-08-01T11:41:27;100511.56;;;32.04;67.12
50242;BME280;36126;43.222;27.874;2022-08-01T11:44:01;100515.91;;;32.18;66.25
50242;BME280;36126;43.222;27.874;2022-08-01T11:46:55;100509.03;;;31.99;68.33
50242;BME280;36126;43.222;27.874;2022-08-01T11:54:57;100505.81;;;31.78;68.12
50242;BME280;36126;43.222;27.874;2022-08-01T11:57:30;100507.69;;;31.66;68.76
50242;BME280;36126;43.222;27.874;2022-08-01T11:59:59;100504.06;;;31.96;66.46
50242;BME280;36126;43.222;27.874;2022-08-01T12:02:30;100502.97;;;31.54;68.51
50242;BME280;36126;43.222;27.874;2022-08-01T12:05:01;100488.06;;;31.45;67.85
50242;BME280;36126;43.222;27.874;2022-08-01T12:07:29;100482.84;;;31.28;68.86
50242;BME280;36126;43.222;27.874;2022-08-01T12:12:24;100481.84;;;31.43;67.74
50242;BME280;36126;43.222;27.874;2022-08-01T12:14:58;100491.63;;;31.88;66.76
50242;BME280;36126;43.222;27.874;2022-08-01T12:17:41;100487.88;;;32.42;66.27
50242;BME280;36126;43.222;27.874;2022-08-01T12:20:09;100489.69;;;32.23;65.50
50242;BME280;36126;43.222;27.874;2022-08-01T12:22:35;100463.34;;;32.17;66.46
50242;BME280;36126;43.222;27.874;2022-08-01T12:25:09;100488.59;;;33.03;65.14
50242;BME280;36126;43.222;27.874;2022-08-01T12:27:36;100482.66;;;33.26;63.11
50242;BME280;36126;43.222;27.874;2022-08-01T12:30:14;100489.41;;;32.32;63.00
50242;BME280;36126;43.222;27.874;2022-08-01T12:32:42;100487.13;;;31.87;63.65
50242;BME280;36126;43.222;27.874;2022-08-01T12:35:15;100484.63;;;31.59;65.80
50242;BME280;36126;43.222;27.874;2022-08-01T12:37:47;100459.25;;;31.61;67.66
50242;BME280;36126;43.222;27.874;2022-08-01T12:40:21;100461.53;;;31.79;67.11
50242;BME280;36126;43.222;27.874;2022-08-01T12:42:55;100472.38;;;31.89;69.06
50242;BME280;36126;43.222;27.874;2022-08-01T12:45:24;100481.75;;;31.36;68.83
50242;BME280;36126;43.222;27.874;2022-08-01T12:47:52;100469.88;;;30.91;69.31
50242;BME280;36126;43.222;27.874;2022-08-01T12:50:23;100470.75;;;30.72;69.28
50242;BME280;36126;43.222;27.874;2022-08-01T12:52:51;100457.56;;;30.67;70.71
50242;BME280;36126;43.222;27.874;2022-08-01T12:55:19;100462.66;;;30.78;70.95
50242;BME280;36126;43.222;27.874;2022-08-01T12:57:47;100453.06;;;30.90;69.29
50242;BME280;36126;43.222;27.874;2022-08-01T13:00:25;100469.22;;;30.78;70.11
50242;BME280;36126;43.222;27.874;2022-08-01T13:03:18;100451.22;;;31.01;69.32
50242;BME280;36126;43.222;27.874;2022-08-01T13:08:22;100449.66;;;31.03;70.38
50242;BME280;36126;43.222;27.874;2022-08-01T13:11:03;100449.16;;;31.01;71.69
50242;BME280;36126;43.222;27.874;2022-08-01T13:13:46;100433.72;;;31.06;70.43
50242;BME280;36126;43.222;27.874;2022-08-01T13:16:13;100428.78;;;31.30;70.97
50242;BME280;36126;43.222;27.874;2022-08-01T13:18:39;100442.16;;;31.22;70.47
50242;BME280;36126;43.222;27.874;2022-08-01T13:21:23;100452.84;;;31.48;68.94
50242;BME280;36126;43.222;27.874;2022-08-01T13:24:05;100447.22;;;31.55;67.38